Terminal Aerodrome Forecast
Issued by NWS

Home | Current Version | Previous Version | Text Only | Print | Product List | Glossary On
Versions: 1 2 3 4 5 6 7 8 9 10 11 12
000
FTUS45 KGGW 270520
TAFSDY
TAF
KSDY 270520Z 2706/2806 16008KT P6SM SCT200 WS020/18045KT
     FM270800 17007KT P6SM VCSH BKN110 WS020/18040KT
     FM271200 16005KT P6SM VCSH BKN100 WS020/21035KT
     FM272000 28011KT P6SM BKN110
     FM280000 32013G24KT P6SM BKN100=

USA.gov is the U.S. government's official web portal to all federal, state and local government web resources and services.